Time;durP1;ratioP1;P1;durP2;ratioP2;P2;SDS_P1;SDS_P2;PMS_P1;PMS_P2;Temp;Humidity;BMP_temperature;BMP_pressure;BME280_temperature;BME280_humidity;BME280_pressure;Samples;Min_cycle;Max_cycle;Signal;HPM_P1;HPM_P2
2023/07/26 00:01:31;;;;;;;0.80;0.80;;;;;;;14.73;78.07;101168.44;5037351;28;20240;-88
2023/07/26 00:03:58;;;;;;;1.13;0.90;;;;;;;14.72;78.38;101171.19;5055235;28;20327;-88
2023/07/26 00:06:25;;;;;;;2.60;0.90;;;;;;;14.69;77.90;101168.69;5037307;28;20045;-88
2023/07/26 00:08:51;;;;;;;0.80;0.80;;;;;;;14.66;77.94;101164.44;5038333;28;20220;-88
2023/07/26 00:11:16;;;;;;;1.20;1.17;;;;;;;14.64;78.11;101182.09;5037405;28;20017;-88
2023/07/26 00:13:43;;;;;;;1.45;1.20;;;;;;;14.61;78.31;101168.22;5055171;28;20031;-88
2023/07/26 00:16:08;;;;;;;0.90;0.85;;;;;;;14.56;78.46;101157.91;5055374;28;20348;-88
2023/07/26 00:18:34;;;;;;;0.80;0.80;;;;;;;14.54;78.27;101170.31;5055343;28;20029;-88
2023/07/26 00:20:59;;;;;;;1.00;0.90;;;;;;;14.50;78.56;101161.72;5056040;28;20061;-88
2023/07/26 00:23:25;;;;;;;3.78;0.93;;;;;;;14.47;78.60;101171.56;5054396;28;20056;-89
2023/07/26 00:25:50;;;;;;;1.30;0.90;;;;;;;14.44;78.37;101171.72;5055116;28;20036;-88
2023/07/26 00:28:16;;;;;;;1.05;0.90;;;;;;;14.41;78.75;101170.09;5055318;28;20029;-88
2023/07/26 00:30:42;;;;;;;1.50;1.10;;;;;;;14.38;78.64;101167.63;5037252;28;20044;-88
2023/07/26 00:33:07;;;;;;;2.17;1.00;;;;;;;14.35;78.75;101165.13;5055324;28;20288;-88
2023/07/26 00:35:37;;;;;;;2.55;0.90;;;;;;;14.31;79.09;101159.16;5054887;28;20028;-89
2023/07/26 00:38:03;;;;;;;2.60;1.20;;;;;;;14.28;79.34;101164.63;5055135;28;20431;-89
2023/07/26 00:40:28;;;;;;;1.35;0.80;;;;;;;14.25;79.07;101162.13;5054844;28;20041;-88
2023/07/26 00:42:53;;;;;;;1.33;1.00;;;;;;;14.22;79.35;101157.00;5055348;28;20351;-88
2023/07/26 00:45:19;;;;;;;0.90;0.90;;;;;;;14.19;79.56;101157.19;5054574;28;20039;-88
2023/07/26 00:47:45;;;;;;;0.90;0.90;;;;;;;14.17;79.87;101154.63;5045075;28;20033;-88
2023/07/26 00:50:10;;;;;;;1.00;0.80;;;;;;;14.15;79.64;101156.50;5055243;28;20025;-88
2023/07/26 00:52:38;;;;;;;1.08;0.98;;;;;;;14.13;79.92;101154.84;5054680;28;20059;-88
2023/07/26 00:55:04;;;;;;;1.15;0.88;;;;;;;14.09;79.80;101156.78;5054871;28;20237;-88
2023/07/26 00:57:30;;;;;;;2.70;1.00;;;;;;;14.07;80.09;101156.00;5058892;28;20037;-88
2023/07/26 00:59:57;;;;;;;0.73;0.73;;;;;;;14.06;80.36;101163.97;5059676;28;20307;-88
2023/07/26 01:02:22;;;;;;;0.80;0.80;;;;;;;14.02;80.12;101158.88;5039915;28;20025;-88
2023/07/26 01:04:48;;;;;;;0.90;0.90;;;;;;;14.01;79.90;101151.06;5059257;28;20082;-88
2023/07/26 01:07:22;;;;;;;3.55;0.85;;;;;;;13.98;80.07;101148.56;5040861;28;20049;-88
2023/07/26 01:10:30;;;;;;;3.13;1.30;;;;;;;13.96;80.33;101155.69;5058091;28;20052;-88
2023/07/26 01:13:14;;;;;;;;;;;;;;;13.91;80.73;101153.28;5059275;28;20052;-88
2023/07/26 01:15:41;;;;;;;1.55;0.85;;;;;;;13.88;80.42;101157.84;5058129;28;19916;-88
2023/07/26 01:18:15;;;;;;;1.13;0.90;;;;;;;13.85;80.69;101153.59;5059302;28;20037;-89
2023/07/26 01:20:41;;;;;;;1.05;0.88;;;;;;;13.82;80.87;101151.09;5058374;28;20041;-88
2023/07/26 01:23:07;;;;;;;1.88;0.90;;;;;;;13.78;80.77;101146.94;5058824;28;20060;-88
2023/07/26 01:25:33;;;;;;;1.02;0.98;;;;;;;13.75;80.96;101147.94;5024419;28;20393;-88
2023/07/26 01:27:59;;;;;;;1.85;1.10;;;;;;;13.74;81.28;101148.00;5057783;28;20041;-88
2023/07/26 01:30:29;;;;;;;1.33;1.10;;;;;;;13.71;81.37;101145.53;5058255;28;20350;-89
2023/07/26 01:32:57;;;;;;;1.02;0.80;;;;;;;13.69;81.59;101144.75;5058941;28;20280;-88
2023/07/26 01:35:23;;;;;;;2.35;0.98;;;;;;;13.66;81.53;101145.75;5043206;28;20029;-88
2023/07/26 01:37:50;;;;;;;2.35;1.10;;;;;;;13.65;81.39;101145.84;5058703;28;20344;-88
2023/07/26 01:40:17;;;;;;;1.25;0.85;;;;;;;13.62;81.51;101149.44;5058422;28;20227;-88
2023/07/26 01:42:42;;;;;;;2.00;1.30;;;;;;;13.59;81.78;101142.56;5040329;28;20064;-88
2023/07/26 01:45:09;;;;;;;1.85;1.08;;;;;;;13.58;81.71;101143.47;5057907;28;20166;-88
2023/07/26 01:47:35;;;;;;;0.80;0.80;;;;;;;13.57;81.79;101140.91;5057662;28;20104;-88
2023/07/26 01:50:00;;;;;;;1.08;0.93;;;;;;;13.55;81.48;101137.50;5057935;28;20096;-88
2023/07/26 01:52:26;;;;;;;0.80;0.80;;;;;;;13.53;81.55;101142.84;5057661;28;20114;-88
2023/07/26 01:54:51;;;;;;;1.10;0.90;;;;;;;13.51;81.56;101138.59;5040139;28;20166;-88
2023/07/26 01:57:16;;;;;;;1.25;1.15;;;;;;;13.49;81.90;101141.28;5058306;28;20044;-88
2023/07/26 01:59:42;;;;;;;0.90;0.90;;;;;;;13.48;81.77;101141.34;5058318;28;20387;-88
2023/07/26 02:02:07;;;;;;;2.10;1.00;;;;;;;13.46;82.06;101141.44;5057428;28;20063;-88
2023/07/26 02:04:33;;;;;;;1.15;1.05;;;;;;;13.43;82.04;101138.97;5057512;28;20607;-88
2023/07/26 02:06:58;;;;;;;1.13;1.02;;;;;;;13.40;81.92;101137.31;5057079;28;20083;-88
2023/07/26 02:09:24;;;;;;;2.08;0.90;;;;;;;13.39;82.32;101140.88;5056983;28;20028;-88
2023/07/26 02:11:49;;;;;;;1.05;0.95;;;;;;;13.38;82.62;101143.59;5057903;28;20040;-88
2023/07/26 02:14:16;;;;;;;1.02;0.98;;;;;;;13.36;82.23;101140.19;5058050;28;20222;-88
2023/07/26 02:16:41;;;;;;;1.40;1.20;;;;;;;13.34;82.23;101135.00;5057423;28;20093;-88
2023/07/26 02:19:07;;;;;;;0.95;0.95;;;;;;;13.31;82.48;101136.91;5058243;28;20280;-88
2023/07/26 02:21:33;;;;;;;0.90;0.90;;;;;;;13.31;82.47;101139.53;5038955;28;20314;-88
2023/07/26 02:23:58;;;;;;;1.02;0.95;;;;;;;13.30;82.94;101140.41;5039818;28;20107;-88
2023/07/26 02:26:24;;;;;;;1.98;1.08;;;;;;;13.28;83.16;101137.00;5057556;28;20256;-88
2023/07/26 02:28:49;;;;;;;1.17;1.08;;;;;;;13.25;83.12;101135.41;5039811;28;20029;-88
2023/07/26 02:31:15;;;;;;;2.30;1.08;;;;;;;13.24;83.31;101141.56;5039105;28;20143;-88
2023/07/26 02:33:40;;;;;;;1.17;1.08;;;;;;;13.22;83.29;101138.16;5056403;28;20318;-88
2023/07/26 02:36:06;;;;;;;1.20;1.10;;;;;;;13.21;83.06;101136.47;5038175;28;20037;-85
2023/07/26 02:38:31;;;;;;;1.00;0.85;;;;;;;13.19;83.06;101133.06;5043135;28;20382;-85
2023/07/26 02:40:57;;;;;;;2.33;1.23;;;;;;;13.19;83.26;101140.97;5057417;28;20044;-86
2023/07/26 02:43:22;;;;;;;0.90;0.90;;;;;;;13.18;83.49;101136.59;5056418;28;20040;-85
2023/07/26 02:45:47;;;;;;;0.90;0.85;;;;;;;13.16;83.43;101127.94;5057661;28;20032;-85
2023/07/26 02:48:13;;;;;;;0.90;0.90;;;;;;;13.14;83.69;101130.63;5038813;28;20391;-85
2023/07/26 02:50:38;;;;;;;1.63;1.10;;;;;;;13.12;83.64;101126.38;5056350;28;20044;-85
2023/07/26 02:53:04;;;;;;;0.95;0.95;;;;;;;13.13;83.77;101128.06;5039273;28;20040;-85
2023/07/26 02:55:29;;;;;;;0.80;0.80;;;;;;;13.12;83.89;101131.66;5038421;28;20024;-86
2023/07/26 02:57:55;;;;;;;1.13;1.05;;;;;;;13.11;84.06;101128.13;5039175;28;20104;-85
2023/07/26 03:00:20;;;;;;;1.58;1.00;;;;;;;13.11;84.16;101127.28;5056336;28;20059;-85
2023/07/26 03:02:45;;;;;;;0.90;0.90;;;;;;;13.09;84.12;101129.16;5039086;28;20037;-85
2023/07/26 03:05:11;;;;;;;1.30;1.20;;;;;;;13.09;83.91;101137.03;5039203;28;20025;-85
2023/07/26 03:07:36;;;;;;;1.00;1.00;;;;;;;13.07;84.11;101131.84;5048524;28;20126;-85
2023/07/26 03:10:02;;;;;;;1.13;1.02;;;;;;;13.07;84.15;101130.06;5038905;28;20151;-85
2023/07/26 03:12:27;;;;;;;0.95;0.95;;;;;;;13.06;84.30;101132.75;5056045;28;20048;-85
2023/07/26 03:14:53;;;;;;;1.20;1.10;;;;;;;13.06;84.61;101138.00;5038661;28;20096;-85
2023/07/26 03:17:19;;;;;;;1.15;1.08;;;;;;;13.05;84.71;101125.81;5056135;28;20224;-85
2023/07/26 03:19:44;;;;;;;1.33;1.10;;;;;;;13.06;84.70;101130.13;5038986;28;20212;-85
2023/07/26 03:22:09;;;;;;;0.85;0.85;;;;;;;13.06;84.83;101138.88;5038529;28;20039;-85
2023/07/26 03:24:35;;;;;;;0.95;0.90;;;;;;;13.06;84.71;101131.00;5038299;28;20024;-85
2023/07/26 03:27:00;;;;;;;0.68;0.68;;;;;;;13.05;84.69;101139.81;5038392;28;20028;-85
2023/07/26 03:29:26;;;;;;;1.05;0.95;;;;;;;13.06;84.88;101138.88;5037753;28;20035;-85
2023/07/26 03:31:51;;;;;;;0.98;0.95;;;;;;;13.07;84.67;101137.09;5056408;28;20033;-85
2023/07/26 03:34:17;;;;;;;0.80;0.80;;;;;;;13.08;84.82;101136.19;5037799;28;20024;-85
2023/07/26 03:36:42;;;;;;;1.17;1.13;;;;;;;13.06;84.96;101131.00;5056738;28;20037;-85
2023/07/26 03:39:07;;;;;;;1.15;1.10;;;;;;;13.07;84.92;101129.22;5038130;28;20029;-85
2023/07/26 03:41:33;;;;;;;1.10;1.00;;;;;;;13.09;85.40;101134.41;5037416;28;20335;-85
2023/07/26 03:43:58;;;;;;;1.10;1.00;;;;;;;13.09;84.95;101139.66;5038270;28;20040;-85
2023/07/26 03:46:24;;;;;;;0.98;0.98;;;;;;;13.10;85.31;101138.72;5037905;28;20037;-85
2023/07/26 03:48:49;;;;;;;1.33;1.20;;;;;;;13.09;85.76;101137.88;5037538;28;20344;-85
2023/07/26 03:51:14;;;;;;;1.00;1.00;;;;;;;13.10;85.57;101131.72;5055906;28;20037;-85
2023/07/26 03:53:40;;;;;;;1.95;1.25;;;;;;;13.11;85.66;101133.41;5034021;28;20336;-85
2023/07/26 03:56:05;;;;;;;1.35;1.20;;;;;;;13.12;86.02;101129.03;5036309;28;20029;-85
2023/07/26 03:58:31;;;;;;;0.95;0.90;;;;;;;13.13;86.19;101117.56;5043740;28;20323;-85
2023/07/26 04:00:56;;;;;;;1.50;1.40;;;;;;;13.12;86.10;101116.72;5055928;28;20323;-85
2023/07/26 04:03:22;;;;;;;1.10;1.10;;;;;;;13.13;86.20;101118.41;5053571;28;20088;-85
2023/07/26 04:05:47;;;;;;;1.85;1.10;;;;;;;13.15;86.18;101119.22;5020061;28;20279;-85
2023/07/26 04:08:13;;;;;;;1.60;1.15;;;;;;;13.16;86.29;101114.78;5026848;28;20293;-85
2023/07/26 04:10:38;;;;;;;1.08;1.08;;;;;;;13.18;86.17;101110.31;5055256;28;20052;-85
2023/07/26 04:13:03;;;;;;;1.50;1.40;;;;;;;13.18;86.44;101113.78;5037767;28;20064;-85
2023/07/26 04:15:29;;;;;;;1.85;1.20;;;;;;;13.19;85.99;101107.63;5055243;28;20332;-85
2023/07/26 04:17:55;;;;;;;1.70;1.58;;;;;;;13.19;86.26;101112.03;5034776;28;20039;-85
2023/07/26 04:20:20;;;;;;;2.20;1.35;;;;;;;13.21;86.32;101112.81;5055097;28;20029;-85
2023/07/26 04:22:46;;;;;;;2.13;1.50;;;;;;;13.21;86.56;101112.81;5037790;28;20067;-85
2023/07/26 04:25:11;;;;;;;4.28;1.38;;;;;;;13.23;86.55;101113.59;5055400;28;20051;-86
2023/07/26 04:27:36;;;;;;;1.60;1.50;;;;;;;13.24;86.67;101115.25;5037003;28;20338;-85
2023/07/26 04:30:03;;;;;;;1.50;1.27;;;;;;;13.24;86.72;101116.13;5054421;28;20055;-85
2023/07/26 04:32:28;;;;;;;1.60;1.50;;;;;;;13.26;86.73;101118.69;5036927;28;20032;-85
2023/07/26 04:34:53;;;;;;;1.27;1.17;;;;;;;13.26;86.56;101108.16;5037112;28;20033;-85
2023/07/26 04:37:19;;;;;;;4.95;1.65;;;;;;;13.29;86.90;101115.91;5036464;28;20429;-85
2023/07/26 04:39:48;;;;;;;1.70;1.60;;;;;;;13.30;86.97;101114.13;5037403;28;20029;-85
2023/07/26 04:42:13;;;;;;;;;;;;;;;13.31;86.75;101110.59;5037563;28;20342;-85
2023/07/26 04:44:39;;;;;;;1.77;1.52;;;;;;;13.30;86.87;101108.84;5036831;28;19909;-85
2023/07/26 04:47:05;;;;;;;2.17;1.85;;;;;;;13.33;87.00;101108.75;5037537;28;20017;-85
2023/07/26 04:49:30;;;;;;;5.05;1.80;;;;;;;13.34;86.80;101118.38;5053903;28;20045;-85
2023/07/26 04:51:55;;;;;;;1.77;1.67;;;;;;;13.34;86.73;101119.22;5056024;28;20037;-85
2023/07/26 04:54:21;;;;;;;2.00;1.80;;;;;;;13.36;87.00;101124.41;5036546;28;20051;-85
2023/07/26 04:56:46;;;;;;;1.95;1.77;;;;;;;13.36;87.01;101125.25;5037827;28;20205;-85
2023/07/26 04:59:12;;;;;;;2.33;1.48;;;;;;;13.39;86.70;101119.84;5036849;28;20369;-85
2023/07/26 05:01:37;;;;;;;2.40;1.67;;;;;;;13.40;86.78;101125.94;5036684;28;20024;-85
2023/07/26 05:04:03;;;;;;;3.08;2.30;;;;;;;13.40;86.95;101120.69;5055066;28;20040;-85
2023/07/26 05:06:30;;;;;;;2.42;2.22;;;;;;;13.43;87.16;101123.19;5036233;28;20116;-85
2023/07/26 05:08:56;;;;;;;2.35;2.15;;;;;;;13.43;87.25;101118.75;5053917;28;20036;-85
2023/07/26 05:11:22;;;;;;;2.65;1.77;;;;;;;13.47;87.04;101121.25;5036528;28;20406;-85
2023/07/26 05:13:48;;;;;;;4.03;1.50;;;;;;;13.48;86.85;101122.94;5036767;28;20037;-85
2023/07/26 05:16:14;;;;;;;2.40;2.20;;;;;;;13.49;86.67;101128.13;5036740;28;20037;-85
2023/07/26 05:18:39;;;;;;;5.30;2.63;;;;;;;13.51;87.22;101123.66;5032869;28;20026;-85
2023/07/26 05:21:05;;;;;;;3.83;2.70;;;;;;;13.53;87.35;101134.94;5054269;28;20232;-85
2023/07/26 05:23:30;;;;;;;4.07;2.63;;;;;;;13.55;87.58;101135.75;5036019;28;20389;-85
2023/07/26 05:25:55;;;;;;;2.58;2.38;;;;;;;13.57;87.69;101135.66;5054642;28;20037;-86
2023/07/26 05:28:21;;;;;;;4.45;3.22;;;;;;;13.58;87.92;101135.59;5032537;28;20269;-86
2023/07/26 05:30:46;;;;;;;5.22;3.20;;;;;;;13.61;87.87;101145.13;5037008;28;20350;-85
2023/07/26 05:33:12;;;;;;;3.42;2.92;;;;;;;13.62;87.98;101141.56;5036610;28;20037;-85
2023/07/26 05:35:38;;;;;;;3.35;2.40;;;;;;;13.63;88.01;101149.38;5036506;28;20035;-85
2023/07/26 05:38:03;;;;;;;3.65;2.75;;;;;;;13.67;88.33;101165.03;5036954;28;20103;-85
2023/07/26 05:40:29;;;;;;;4.82;3.53;;;;;;;13.67;88.17;101165.03;5036017;28;20100;-85
2023/07/26 05:42:54;;;;;;;3.83;2.85;;;;;;;13.70;88.80;101171.00;5034915;28;20657;-85
2023/07/26 05:45:20;;;;;;;2.92;2.63;;;;;;;13.72;88.64;101165.66;5049114;28;20033;-86
2023/07/26 05:47:45;;;;;;;3.03;2.40;;;;;;;13.74;88.52;101171.69;5040819;28;20055;-85
2023/07/26 05:50:11;;;;;;;3.38;2.97;;;;;;;13.76;88.51;101175.09;5058642;28;20029;-85
2023/07/26 05:52:37;;;;;;;2.20;2.00;;;;;;;13.78;88.39;101179.34;5058130;28;20338;-85
2023/07/26 05:55:04;;;;;;;2.00;1.90;;;;;;;13.79;88.37;101180.22;5040362;28;20029;-86
2023/07/26 05:57:29;;;;;;;4.03;2.03;;;;;;;13.81;88.02;101195.00;5057592;28;20041;-85
2023/07/26 05:59:55;;;;;;;2.45;1.85;;;;;;;13.82;87.81;101191.47;5040209;28;20044;-85
2023/07/26 06:02:21;;;;;;;2.20;1.95;;;;;;;13.83;87.71;101193.16;5036019;28;20029;-85
2023/07/26 06:04:46;;;;;;;4.53;2.90;;;;;;;13.85;87.69;101190.44;5040529;28;20251;-85
2023/07/26 06:07:12;;;;;;;3.13;2.00;;;;;;;13.86;87.47;101201.81;5057708;28;20197;-86
2023/07/26 06:09:37;;;;;;;2.58;2.17;;;;;;;13.86;87.37;101205.34;5057402;28;20048;-85
2023/07/26 06:12:03;;;;;;;5.25;2.17;;;;;;;13.87;87.50;101208.81;5039133;28;20063;-85
2023/07/26 06:14:29;;;;;;;4.50;2.10;;;;;;;13.88;87.48;101211.38;5043813;28;20040;-85
2023/07/26 06:16:55;;;;;;;2.05;1.73;;;;;;;13.89;87.29;101212.22;5045381;28;20025;-85
2023/07/26 06:19:21;;;;;;;2.08;1.88;;;;;;;13.91;87.04;101215.63;5045891;28;20216;-85
2023/07/26 06:21:47;;;;;;;2.05;1.90;;;;;;;13.91;87.08;101213.84;5050925;28;20109;-85
2023/07/26 06:24:12;;;;;;;2.33;2.10;;;;;;;13.93;87.61;101213.75;5045518;28;20060;-86
2023/07/26 06:26:38;;;;;;;2.00;1.90;;;;;;;13.95;87.62;101210.16;5044998;28;20029;-85
2023/07/26 06:29:04;;;;;;;2.75;1.88;;;;;;;13.96;87.52;101209.19;5051127;28;20444;-85
2023/07/26 06:31:29;;;;;;;3.03;1.90;;;;;;;13.99;87.08;101210.84;5044123;28;20070;-85
2023/07/26 06:33:54;;;;;;;2.97;2.10;;;;;;;14.03;87.63;101215.03;5049811;28;20140;-85
2023/07/26 06:36:20;;;;;;;2.10;1.98;;;;;;;14.04;87.84;101215.88;5050388;28;20040;-85
2023/07/26 06:38:45;;;;;;;2.30;1.90;;;;;;;14.06;87.82;101214.00;5050347;28;20256;-85
2023/07/26 06:41:11;;;;;;;2.67;2.22;;;;;;;14.08;88.06;101218.28;5036939;28;20029;-85
2023/07/26 06:43:37;;;;;;;2.00;1.88;;;;;;;14.11;88.09;101219.91;5052337;28;20040;-86
2023/07/26 06:46:03;;;;;;;3.00;2.53;;;;;;;14.14;88.18;101228.50;5038550;28;20224;-85
2023/07/26 06:48:29;;;;;;;2.17;1.75;;;;;;;14.17;88.49;101231.00;5047125;28;20239;-85
2023/07/26 06:50:54;;;;;;;2.33;1.80;;;;;;;14.20;88.81;101225.56;5041984;28;20033;-85
2023/07/26 06:53:19;;;;;;;2.72;1.77;;;;;;;14.23;88.72;101221.94;5048417;28;20205;-85
2023/07/26 06:55:45;;;;;;;3.60;2.53;;;;;;;14.25;88.36;101229.78;5049569;28;20204;-86
2023/07/26 06:58:10;;;;;;;2.58;2.28;;;;;;;14.26;88.83;101221.81;5050267;28;20033;-85
2023/07/26 07:00:36;;;;;;;1.90;1.80;;;;;;;14.29;88.92;101229.53;5044967;28;20029;-85
2023/07/26 07:03:03;;;;;;;2.83;1.70;;;;;;;14.31;89.07;101230.31;5042218;28;20063;-86
2023/07/26 07:05:30;;;;;;;1.92;1.60;;;;;;;14.33;88.80;101230.22;5056078;28;20059;-85
2023/07/26 07:07:56;;;;;;;1.35;1.25;;;;;;;14.35;88.79;101231.88;5038006;28;20044;-85
2023/07/26 07:10:22;;;;;;;2.00;1.73;;;;;;;14.36;88.77;101222.19;5055825;28;20256;-85
2023/07/26 07:12:48;;;;;;;3.55;1.90;;;;;;;14.39;89.14;101233.41;5050322;28;20327;-86
2023/07/26 07:15:13;;;;;;;4.90;2.83;;;;;;;14.40;88.95;101234.25;5053311;28;20037;-85
2023/07/26 07:17:39;;;;;;;4.20;3.00;;;;;;;14.44;89.06;101227.06;5055977;28;20055;-85
2023/07/26 07:20:07;;;;;;;5.85;2.95;;;;;;;14.49;89.63;101235.59;5056664;28;20028;-85
2023/07/26 07:22:35;;;;;;;4.28;3.03;;;;;;;14.51;89.69;101229.28;5055567;28;20264;-85
2023/07/26 07:25:01;;;;;;;6.88;3.47;;;;;;;14.55;89.79;101233.50;5038962;28;20036;-86
2023/07/26 07:27:26;;;;;;;4.70;3.00;;;;;;;14.59;89.41;101239.50;5037678;28;20071;-85
2023/07/26 07:29:52;;;;;;;4.03;3.05;;;;;;;14.62;88.92;101247.22;5038149;28;20034;-85
2023/07/26 07:32:18;;;;;;;5.25;3.25;;;;;;;14.66;89.02;101243.53;5036717;28;20368;-86
2023/07/26 07:34:45;;;;;;;4.07;3.08;;;;;;;14.70;88.84;101246.88;5034626;28;20087;-86
2023/07/26 07:37:11;;;;;;;7.05;3.22;;;;;;;14.72;88.65;101255.53;5037732;28;20025;-86
2023/07/26 07:39:36;;;;;;;4.55;3.25;;;;;;;14.77;88.04;101256.13;5036911;28;20263;-86
2023/07/26 07:42:02;;;;;;;3.42;2.90;;;;;;;14.80;87.88;101257.78;5055707;28;20033;-86
2023/07/26 07:44:28;;;;;;;5.65;2.97;;;;;;;14.81;87.59;101251.56;5055161;28;20033;-86
2023/07/26 07:46:53;;;;;;;3.83;2.95;;;;;;;14.85;87.55;101250.47;5055796;28;20028;-86
2023/07/26 07:49:19;;;;;;;3.13;2.60;;;;;;;14.87;87.50;101253.88;5050482;28;20338;-85
2023/07/26 07:51:44;;;;;;;8.38;3.25;;;;;;;14.91;87.36;101258.06;5055107;28;20378;-85
2023/07/26 07:54:10;;;;;;;2.75;2.55;;;;;;;14.93;87.35;101261.47;5037746;28;20028;-85
2023/07/26 07:56:35;;;;;;;2.70;2.50;;;;;;;14.97;86.58;101260.38;5026891;28;20693;-86
2023/07/26 07:59:01;;;;;;;2.90;2.60;;;;;;;15.00;86.73;101260.22;5055967;28;20016;-86
2023/07/26 08:01:27;;;;;;;2.65;2.10;;;;;;;15.00;86.26;101262.84;5055460;28;20225;-85
2023/07/26 08:03:52;;;;;;;3.55;2.45;;;;;;;15.01;85.87;101258.41;5036245;28;20259;-85
2023/07/26 08:06:17;;;;;;;3.63;2.70;;;;;;;15.04;85.94;101264.38;5053628;28;20059;-86
2023/07/26 08:08:43;;;;;;;2.60;2.40;;;;;;;15.04;85.68;101258.28;5040795;28;20060;-86
2023/07/26 08:11:08;;;;;;;2.78;2.30;;;;;;;15.07;85.85;101253.69;5056296;28;20040;-86
2023/07/26 08:13:34;;;;;;;4.82;2.05;;;;;;;15.11;85.65;101260.50;5053633;28;20024;-86
2023/07/26 08:16:00;;;;;;;3.85;2.75;;;;;;;15.13;85.61;101263.06;5042720;28;20025;-86
2023/07/26 08:18:25;;;;;;;2.85;2.45;;;;;;;15.17;85.34;101267.22;5042493;28;20021;-86
2023/07/26 08:20:51;;;;;;;5.03;2.63;;;;;;;15.18;85.04;101257.56;5038097;28;20295;-86
2023/07/26 08:23:19;;;;;;;4.38;2.65;;;;;;;15.20;84.57;101264.44;5054948;28;20055;-86
2023/07/26 08:25:45;;;;;;;4.30;2.47;;;;;;;15.20;84.25;101263.59;5037747;28;20028;-86
2023/07/26 08:28:11;;;;;;;5.35;2.50;;;;;;;15.22;84.32;101270.47;5055774;28;20328;-86
2023/07/26 08:30:37;;;;;;;6.50;2.67;;;;;;;15.23;84.33;101269.56;5054554;28;20045;-85
2023/07/26 08:33:02;;;;;;;3.45;2.80;;;;;;;15.27;83.81;101276.38;5037592;28;20036;-86
2023/07/26 08:35:28;;;;;;;6.20;2.88;;;;;;;15.31;83.56;101272.63;5036480;28;20025;-86
2023/07/26 08:37:54;;;;;;;2.95;2.60;;;;;;;15.35;83.16;101274.19;5041033;28;20032;-86
2023/07/26 08:40:20;;;;;;;2.53;1.90;;;;;;;15.39;82.88;101279.28;5037876;28;20020;-85
2023/07/26 08:42:46;;;;;;;7.57;2.72;;;;;;;15.42;83.08;101282.59;5056585;28;20040;-86
2023/07/26 08:45:12;;;;;;;5.60;2.63;;;;;;;15.46;83.00;101280.66;5058074;28;20100;-86
2023/07/26 08:47:38;;;;;;;5.80;3.10;;;;;;;15.49;82.65;101272.56;5041381;28;20862;-86
2023/07/26 08:50:05;;;;;;;5.47;2.47;;;;;;;15.53;82.79;101279.38;5038897;28;20039;-86
2023/07/26 08:52:31;;;;;;;2.42;2.22;;;;;;;15.55;82.49;101278.38;5043119;28;20098;-86
2023/07/26 08:54:59;;;;;;;3.25;2.60;;;;;;;15.57;81.83;101272.16;5044009;28;20466;-86
2023/07/26 08:57:25;;;;;;;3.58;2.90;;;;;;;15.58;81.60;101279.16;5056351;28;20031;-86
2023/07/26 08:59:51;;;;;;;3.30;1.90;;;;;;;15.58;81.63;101280.00;5038754;28;20131;-86
2023/07/26 09:02:19;;;;;;;3.55;2.20;;;;;;;15.57;81.00;101278.28;5038600;28;20059;-86
2023/07/26 09:04:45;;;;;;;4.57;1.98;;;;;;;15.57;80.65;101275.63;5039969;28;20562;-86
2023/07/26 09:07:11;;;;;;;2.20;2.00;;;;;;;15.58;80.56;101273.88;5038103;28;20071;-86
2023/07/26 09:09:37;;;;;;;3.38;2.00;;;;;;;15.61;80.19;101278.97;5054149;28;20115;-86
2023/07/26 09:12:03;;;;;;;3.78;2.00;;;;;;;15.62;80.00;101276.25;5046646;28;20035;-86
2023/07/26 09:14:31;;;;;;;2.17;1.80;;;;;;;15.62;79.92;101270.97;5038841;28;20039;-86
2023/07/26 09:17:00;;;;;;;2.50;2.05;;;;;;;15.63;79.96;101282.41;5041209;28;20251;-86
2023/07/26 09:19:33;;;;;;;2.00;1.80;;;;;;;15.64;79.96;101273.53;5058018;28;20373;-86
2023/07/26 09:22:01;;;;;;;1.98;1.80;;;;;;;15.66;79.87;101271.63;5048962;28;20029;-86
2023/07/26 09:24:30;;;;;;;5.57;1.85;;;;;;;15.68;79.56;101282.97;5042713;28;20044;-86
2023/07/26 09:27:06;;;;;;;4.35;2.58;;;;;;;15.68;79.37;101288.25;5052924;28;20035;-86
2023/07/26 09:29:32;;;;;;;3.03;2.53;;;;;;;15.69;79.50;101279.41;5035635;28;20029;-86
2023/07/26 09:31:58;;;;;;;2.30;2.10;;;;;;;15.68;79.29;101277.69;5051838;28;20024;-86
2023/07/26 09:34:23;;;;;;;3.67;2.30;;;;;;;15.71;79.17;101277.53;5047542;28;20033;-86
2023/07/26 09:36:53;;;;;;;2.63;2.25;;;;;;;15.73;79.02;101281.81;5054372;28;20029;-86
2023/07/26 09:39:21;;;;;;;2.60;2.00;;;;;;;15.78;79.57;101294.78;5039329;28;20032;-86
2023/07/26 09:41:47;;;;;;;;;;;;;;;15.82;78.89;101284.88;5042668;28;20043;-86
2023/07/26 09:44:21;;;;;;;3.17;2.25;;;;;;;15.82;78.63;101295.44;5058099;28;19925;-86
2023/07/26 09:46:49;;;;;;;2.17;1.92;;;;;;;15.83;78.78;101286.59;5054902;28;20033;-86
2023/07/26 09:49:15;;;;;;;3.30;2.50;;;;;;;15.84;78.00;101288.28;5057691;28;20056;-86
2023/07/26 09:51:41;;;;;;;2.60;2.28;;;;;;;15.86;78.09;101276.72;5042144;28;20025;-86
2023/07/26 09:54:10;;;;;;;2.72;2.50;;;;;;;15.90;77.92;101280.03;5055987;28;20096;-86
2023/07/26 09:59:39;;;;;;;2.75;2.20;;;;;;;15.99;78.27;101290.09;5058268;28;20048;-86
2023/07/26 10:02:09;;;;;;;8.00;2.60;;;;;;;16.01;77.89;101282.94;5042365;28;20024;-86
2023/07/26 10:04:42;;;;;;;2.13;1.92;;;;;;;16.05;77.77;101281.81;5048475;28;20231;-86
2023/07/26 10:07:11;;;;;;;10.82;2.50;;;;;;;16.07;77.75;101279.09;5042375;28;20103;-86
2023/07/26 10:09:43;;;;;;;4.03;2.55;;;;;;;16.09;77.62;101290.41;5059327;28;20225;-86
2023/07/26 10:12:49;;;;;;;3.65;2.22;;;;;;;16.13;77.30;101291.94;5043356;28;20302;-86
2023/07/26 10:15:16;;;;;;;1.95;1.83;;;;;;;16.14;76.79;101288.38;5040488;28;20040;-86
2023/07/26 10:17:49;;;;;;;8.90;2.10;;;;;;;16.18;76.81;101287.25;5065311;28;20526;-86
2023/07/26 10:20:15;;;;;;;2.05;1.63;;;;;;;16.18;76.99;101283.75;5046517;28;20048;-86
2023/07/26 10:22:45;;;;;;;3.65;2.33;;;;;;;16.19;76.74;101290.72;5050575;28;20064;-86
2023/07/26 10:25:11;;;;;;;6.10;2.30;;;;;;;16.20;76.56;101295.09;5041266;28;20084;-86
2023/07/26 10:27:38;;;;;;;3.42;2.47;;;;;;;16.21;76.65;101288.84;5045684;28;20567;-86
2023/07/26 10:30:05;;;;;;;4.80;2.00;;;;;;;16.22;76.92;101287.94;5044100;28;20040;-86
2023/07/26 10:32:31;;;;;;;3.33;2.30;;;;;;;16.24;76.41;101293.97;5064437;28;20029;-86
2023/07/26 10:34:57;;;;;;;4.65;2.42;;;;;;;16.25;76.30;101293.88;5045331;28;20338;-86
2023/07/26 10:37:29;;;;;;;2.33;2.10;;;;;;;16.26;76.48;101292.97;5064994;28;20037;-86
2023/07/26 10:39:55;;;;;;;2.50;2.30;;;;;;;16.29;76.44;101290.13;5040832;28;20332;-86
2023/07/26 10:42:25;;;;;;;2.60;2.03;;;;;;;16.33;76.56;101289.94;5046267;28;20036;-86
2023/07/26 10:44:57;;;;;;;2.45;2.10;;;;;;;16.36;76.42;101290.63;5054221;28;20028;-86
2023/07/26 10:47:22;;;;;;;2.42;2.03;;;;;;;16.39;75.90;101298.38;5035046;28;20386;-86
2023/07/26 10:49:48;;;;;;;3.08;2.40;;;;;;;16.42;75.94;101300.00;5070561;28;20205;-86
2023/07/26 10:52:14;;;;;;;3.53;1.98;;;;;;;16.42;75.40;101300.00;5071891;28;20036;-86
2023/07/26 10:54:45;;;;;;;2.30;1.90;;;;;;;16.43;75.19;101296.41;5052889;28;20024;-86
2023/07/26 10:57:18;;;;;;;6.32;2.30;;;;;;;16.46;75.21;101307.66;5041824;28;20028;-86
2023/07/26 10:59:55;;;;;;;3.85;2.28;;;;;;;16.48;74.87;101304.91;5054761;28;20021;-86
2023/07/26 11:02:52;;;;;;;2.60;2.22;;;;;;;16.53;75.80;101310.78;5040904;28;20335;-86
2023/07/26 11:05:20;;;;;;;4.72;2.35;;;;;;;16.56;74.20;101307.97;5071252;28;20182;-86
2023/07/26 11:07:58;;;;;;;3.28;2.22;;;;;;;16.58;74.42;101307.88;5044768;28;20049;-86
2023/07/26 11:10:31;;;;;;;2.28;2.08;;;;;;;16.59;74.43;101310.44;5053338;28;20347;-86
2023/07/26 11:13:07;;;;;;;3.70;2.25;;;;;;;16.61;74.90;101313.00;5041597;28;20033;-86
2023/07/26 11:15:34;;;;;;;3.30;2.42;;;;;;;16.63;74.95;101319.06;5040948;28;20041;-86
2023/07/26 11:17:59;;;;;;;2.75;2.40;;;;;;;16.67;74.87;101317.91;5053111;28;20035;-87
2023/07/26 11:20:25;;;;;;;6.00;2.42;;;;;;;16.69;74.17;101319.53;5039720;28;20029;-87
2023/07/26 11:22:50;;;;;;;3.63;2.10;;;;;;;16.72;74.42;101313.22;5056200;28;20228;-86
2023/07/26 11:25:16;;;;;;;3.72;2.20;;;;;;;16.75;74.44;101313.00;5041236;28;20336;-86
2023/07/26 11:27:42;;;;;;;3.47;2.13;;;;;;;16.79;74.52;101324.28;5037468;28;20053;-86